Time;durP1;ratioP1;P1;durP2;ratioP2;P2;SDS_P1;SDS_P2;PMS_P1;PMS_P2;Temp;Humidity;BMP_temperature;BMP_pressure;BME280_temperature;BME280_humidity;BME280_pressure;Samples;Min_cycle;Max_cycle;Signal;HPM_P1;HPM_P2
2023/11/09 00:01:36;;;;;;;4.83;3.80;;;21.70;58.90;;;;;;5034588;28;20171;-66
2023/11/09 00:04:03;;;;;;;4.43;3.20;;;21.80;59.00;;;;;;5035015;28;20407;-67
2023/11/09 00:06:29;;;;;;;5.63;4.43;;;21.80;59.00;;;;;;5034317;28;20430;-67
2023/11/09 00:08:55;;;;;;;5.77;3.73;;;21.80;59.00;;;;;;5034572;28;20919;-67
2023/11/09 00:11:21;;;;;;;5.03;4.43;;;21.80;59.00;;;;;;5034825;28;20814;-67
2023/11/09 00:13:47;;;;;;;3.70;3.00;;;21.70;58.90;;;;;;5034386;28;20265;-66
2023/11/09 00:16:13;;;;;;;3.90;3.43;;;21.70;58.90;;;;;;5033960;28;20202;-68
2023/11/09 00:18:39;;;;;;;4.40;4.00;;;21.70;58.90;;;;;;5034416;28;20441;-67
2023/11/09 00:21:05;;;;;;;6.07;4.23;;;21.70;58.90;;;;;;5034028;28;20450;-67
2023/11/09 00:23:31;;;;;;;4.80;3.40;;;21.70;58.90;;;;;;5034171;28;20916;-67
2023/11/09 00:25:58;;;;;;;4.17;3.47;;;21.70;58.90;;;;;;5034272;28;20199;-67
2023/11/09 00:28:24;;;;;;;3.30;3.00;;;21.70;58.90;;;;;;5034372;28;20852;-67
2023/11/09 00:30:50;;;;;;;4.20;3.40;;;21.70;58.90;;;;;;5033609;28;20914;-67
2023/11/09 00:33:15;;;;;;;3.93;2.97;;;21.70;58.90;;;;;;5033830;28;20445;-67
2023/11/09 00:35:41;;;;;;;3.93;3.20;;;21.70;58.90;;;;;;5033798;28;20188;-66
2023/11/09 00:38:08;;;;;;;4.30;3.30;;;21.70;58.90;;;;;;5034009;28;20634;-66
2023/11/09 00:40:35;;;;;;;4.27;3.10;;;21.70;58.90;;;;;;5033755;28;20191;-67
2023/11/09 00:43:01;;;;;;;5.17;3.90;;;21.70;58.90;;;;;;5033631;28;20426;-67
2023/11/09 00:45:27;;;;;;;4.80;3.00;;;21.70;58.90;;;;;;5034139;28;20427;-67
2023/11/09 00:47:53;;;;;;;4.97;4.30;;;21.70;58.90;;;;;;5034249;28;20186;-67
2023/11/09 00:50:18;;;;;;;4.43;3.33;;;21.70;58.90;;;;;;5034153;28;20798;-68
2023/11/09 00:52:44;;;;;;;4.40;2.90;;;21.70;58.90;;;;;;5033971;28;20175;-67
2023/11/09 00:55:10;;;;;;;6.90;4.03;;;21.70;58.90;;;;;;5033807;28;20179;-67
2023/11/09 00:57:35;;;;;;;4.07;3.00;;;21.70;58.90;;;;;;5034005;28;20787;-67
2023/11/09 01:00:03;;;;;;;4.10;3.23;;;21.70;58.90;;;;;;5033904;28;20326;-68
2023/11/09 01:02:34;;;;;;;3.50;2.80;;;21.70;58.90;;;;;;5033823;28;20309;-67
2023/11/09 01:05:00;;;;;;;4.37;3.30;;;21.70;58.90;;;;;;5034055;28;20421;-67
2023/11/09 01:07:25;;;;;;;4.13;3.73;;;21.70;58.90;;;;;;5033308;28;20418;-67
2023/11/09 01:09:51;;;;;;;4.73;3.07;;;21.70;58.90;;;;;;5033103;28;20457;-68
2023/11/09 01:12:17;;;;;;;3.57;2.70;;;21.70;58.90;;;;;;5034692;28;20191;-66
2023/11/09 01:14:43;;;;;;;4.77;3.37;;;21.70;58.90;;;;;;5033111;28;20193;-68
2023/11/09 01:17:11;;;;;;;4.33;3.73;;;21.70;58.90;;;;;;5032584;28;20438;-66
2023/11/09 01:19:37;;;;;;;4.23;3.27;;;21.70;58.90;;;;;;5033059;28;20191;-68
2023/11/09 01:22:02;;;;;;;3.97;3.57;;;21.70;58.90;;;;;;5033290;28;20449;-67
2023/11/09 01:24:28;;;;;;;4.90;3.50;;;21.70;59.40;;;;;;5032480;28;20175;-68
2023/11/09 01:26:55;;;;;;;3.93;3.50;;;21.70;58.90;;;;;;5033221;28;20199;-67
2023/11/09 01:29:21;;;;;;;4.77;3.30;;;21.70;58.90;;;;;;5033251;28;20172;-67
2023/11/09 01:31:48;;;;;;;3.73;2.93;;;21.70;58.90;;;;;;5033195;28;20422;-67
2023/11/09 01:34:14;;;;;;;4.27;3.07;;;21.70;58.90;;;;;;5033350;28;20505;-67
2023/11/09 01:36:39;;;;;;;5.30;3.20;;;21.70;58.90;;;;;;5031742;28;20857;-68
2023/11/09 01:39:05;;;;;;;4.57;3.47;;;21.70;58.90;;;;;;5033059;28;20211;-67
2023/11/09 01:41:31;;;;;;;4.27;3.10;;;21.70;58.90;;;;;;5033313;28;20164;-67
2023/11/09 01:43:57;;;;;;;3.43;3.13;;;21.70;58.90;;;;;;5033124;28;20176;-67
2023/11/09 01:46:24;;;;;;;5.00;3.40;;;21.70;58.90;;;;;;5032813;28;20207;-66
2023/11/09 01:48:51;;;;;;;3.73;2.83;;;21.60;58.90;;;;;;5032591;28;20917;-68
2023/11/09 01:51:17;;;;;;;3.23;2.90;;;21.70;58.90;;;;;;5032435;28;20922;-68
2023/11/09 01:53:43;;;;;;;3.60;2.90;;;21.60;58.80;;;;;;5033106;28;20441;-68
2023/11/09 01:56:10;;;;;;;3.43;2.37;;;21.70;58.90;;;;;;5032818;28;20862;-67
2023/11/09 01:58:37;;;;;;;3.70;2.77;;;21.60;58.80;;;;;;5033190;28;20179;-66
2023/11/09 02:01:04;;;;;;;3.27;2.90;;;21.70;58.90;;;;;;5032918;28;20513;-67
2023/11/09 02:03:31;;;;;;;5.70;2.90;;;21.60;58.80;;;;;;5032807;28;20411;-68
2023/11/09 02:05:58;;;;;;;4.83;3.37;;;21.60;58.80;;;;;;5032919;28;20833;-67
2023/11/09 02:08:23;;;;;;;3.23;2.93;;;21.60;58.80;;;;;;5032605;28;20532;-67
2023/11/09 02:10:49;;;;;;;3.50;3.03;;;21.60;58.80;;;;;;5032826;28;20406;-67
2023/11/09 02:13:15;;;;;;;3.67;2.97;;;21.60;58.80;;;;;;5032747;28;20571;-67
2023/11/09 02:15:40;;;;;;;3.60;2.77;;;21.60;58.80;;;;;;5031907;28;20203;-68
2023/11/09 02:18:06;;;;;;;3.80;2.73;;;21.60;58.90;;;;;;5032553;28;20198;-67
2023/11/09 02:20:32;;;;;;;3.90;2.90;;;21.70;59.00;;;;;;5032587;28;20261;-67
2023/11/09 02:23:01;;;;;;;5.30;2.90;;;21.60;58.80;;;;;;5032635;28;20213;-68
2023/11/09 02:25:27;;;;;;;5.03;2.60;;;21.60;58.80;;;;;;5032631;28;20517;-67
2023/11/09 02:27:54;;;;;;;4.00;3.00;;;21.60;58.80;;;;;;5032609;28;20465;-68
2023/11/09 02:30:20;;;;;;;3.77;2.70;;;21.60;58.80;;;;;;5032434;28;20170;-68
2023/11/09 02:32:46;;;;;;;3.87;2.30;;;21.60;58.80;;;;;;5032380;28;20430;-68
2023/11/09 02:35:12;;;;;;;3.03;2.50;;;21.60;58.80;;;;;;5032172;28;20647;-67
2023/11/09 02:37:37;;;;;;;3.10;2.40;;;21.60;58.80;;;;;;5031070;28;20489;-66
2023/11/09 02:40:04;;;;;;;3.30;2.97;;;21.60;58.80;;;;;;5031999;28;20199;-67
2023/11/09 02:42:29;;;;;;;3.20;2.40;;;21.60;58.80;;;;;;5032292;28;20827;-67
2023/11/09 02:44:55;;;;;;;3.77;2.67;;;21.60;58.80;;;;;;5031766;28;20486;-67
2023/11/09 02:47:21;;;;;;;4.60;2.50;;;21.60;58.80;;;;;;5031984;28;20178;-66
2023/11/09 02:49:46;;;;;;;3.17;2.70;;;21.60;58.80;;;;;;5030859;28;20180;-68
2023/11/09 02:52:12;;;;;;;3.27;2.97;;;21.60;58.90;;;;;;5032281;28;20184;-65
2023/11/09 02:54:38;;;;;;;4.43;3.10;;;21.60;58.90;;;;;;5032248;28;20550;-67
2023/11/09 02:57:05;;;;;;;4.83;3.07;;;21.60;58.80;;;;;;5031757;28;20567;-67
2023/11/09 02:59:31;;;;;;;5.77;3.37;;;21.60;58.90;;;;;;5032224;28;20481;-67
2023/11/09 03:01:57;;;;;;;2.90;2.60;;;21.60;58.80;;;;;;5034687;28;20454;-65
2023/11/09 03:04:22;;;;;;;4.07;3.23;;;21.60;58.80;;;;;;5035853;28;20174;-68
2023/11/09 03:06:48;;;;;;;3.93;2.77;;;21.60;58.90;;;;;;5035693;28;20192;-67
2023/11/09 03:09:16;;;;;;;2.53;2.20;;;21.60;58.80;;;;;;5035442;28;20651;-67
2023/11/09 03:11:42;;;;;;;2.80;2.33;;;21.60;58.90;;;;;;5035386;28;20242;-67
2023/11/09 03:14:08;;;;;;;4.30;3.10;;;21.60;58.80;;;;;;5034297;28;20422;-67
2023/11/09 03:16:33;;;;;;;3.23;2.47;;;21.60;58.90;;;;;;5035214;28;20202;-67
2023/11/09 03:19:00;;;;;;;3.83;3.17;;;21.60;58.90;;;;;;5035155;28;20273;-68
2023/11/09 03:21:26;;;;;;;3.00;2.43;;;21.60;58.80;;;;;;5034973;28;20523;-67
2023/11/09 03:23:52;;;;;;;3.40;2.90;;;21.60;58.90;;;;;;5035719;28;20944;-68
2023/11/09 03:26:17;;;;;;;2.57;2.13;;;21.60;58.80;;;;;;5035535;28;20470;-67
2023/11/09 03:28:43;;;;;;;3.73;2.60;;;21.60;58.90;;;;;;5033934;28;20591;-67
2023/11/09 03:31:12;;;;;;;4.50;2.47;;;21.50;58.80;;;;;;5035338;28;20176;-67
2023/11/09 03:33:38;;;;;;;4.03;2.47;;;21.60;58.80;;;;;;5035695;28;20736;-67
2023/11/09 03:36:03;;;;;;;3.60;2.60;;;21.60;58.90;;;;;;5035316;28;20464;-68
2023/11/09 03:38:29;;;;;;;3.80;2.93;;;21.60;58.90;;;;;;5035302;28;20273;-67
2023/11/09 03:40:55;;;;;;;3.87;2.80;;;21.50;58.80;;;;;;5035007;28;20643;-67
2023/11/09 03:43:21;;;;;;;2.77;2.50;;;21.60;58.90;;;;;;5035416;28;20302;-66
2023/11/09 03:45:46;;;;;;;3.17;2.67;;;21.50;58.80;;;;;;5035334;28;20537;-67
2023/11/09 03:48:12;;;;;;;2.83;2.20;;;21.50;58.80;;;;;;5034968;28;20176;-66
2023/11/09 03:50:38;;;;;;;3.67;2.60;;;21.50;58.80;;;;;;5035271;28;20171;-67
2023/11/09 03:53:03;;;;;;;3.13;2.10;;;21.60;58.90;;;;;;5035092;28;20255;-67
2023/11/09 03:55:29;;;;;;;3.43;2.50;;;21.50;58.80;;;;;;5035188;28;20761;-67
2023/11/09 03:57:55;;;;;;;3.87;2.60;;;21.50;58.80;;;;;;5035215;28;20221;-68
2023/11/09 04:00:20;;;;;;;2.87;2.20;;;21.50;58.80;;;;;;5034057;28;20728;-67
2023/11/09 04:02:46;;;;;;;2.90;2.20;;;21.50;58.80;;;;;;5034522;28;20546;-67
2023/11/09 04:05:13;;;;;;;4.23;2.70;;;21.50;58.90;;;;;;5033738;28;20271;-67
2023/11/09 04:07:41;;;;;;;4.03;2.60;;;21.50;58.80;;;;;;5034633;28;20172;-68
2023/11/09 04:10:09;;;;;;;3.57;2.53;;;21.60;58.90;;;;;;5034728;28;20853;-68
2023/11/09 04:12:35;;;;;;;3.03;2.40;;;21.50;58.80;;;;;;5033828;28;20498;-67
2023/11/09 04:15:04;;;;;;;2.40;2.17;;;21.50;58.80;;;;;;5034589;28;20417;-67
2023/11/09 04:17:32;;;;;;;3.53;2.40;;;21.50;58.80;;;;;;5034510;28;20450;-68
2023/11/09 04:20:01;;;;;;;2.70;2.50;;;21.60;58.90;;;;;;5034432;28;20450;-68
2023/11/09 04:22:27;;;;;;;3.67;2.63;;;21.50;58.80;;;;;;5034444;28;20402;-67
2023/11/09 04:24:53;;;;;;;3.77;2.90;;;21.50;58.80;;;;;;5034129;28;20410;-67
2023/11/09 04:27:19;;;;;;;3.03;2.57;;;21.50;58.80;;;;;;5034918;28;20275;-68
2023/11/09 04:29:46;;;;;;;3.20;2.60;;;21.50;58.80;;;;;;5034049;28;21083;-67
2023/11/09 04:32:13;;;;;;;3.43;2.33;;;21.50;58.80;;;;;;5033845;28;20207;-67
2023/11/09 04:34:41;;;;;;;2.90;2.40;;;21.50;58.80;;;;;;5034415;28;20415;-67
2023/11/09 04:37:11;;;;;;;4.43;2.47;;;21.50;58.80;;;;;;5033780;28;20434;-67
2023/11/09 04:39:41;;;;;;;3.07;2.40;;;21.50;58.80;;;;;;5034308;28;20560;-67
2023/11/09 04:42:08;;;;;;;3.00;2.23;;;21.50;58.80;;;;;;5034462;28;20410;-68
2023/11/09 04:44:37;;;;;;;2.90;2.33;;;21.50;58.80;;;;;;5033975;28;20496;-68
2023/11/09 04:47:08;;;;;;;4.47;3.10;;;21.50;58.80;;;;;;5034531;28;20438;-66
2023/11/09 04:49:44;;;;;;;3.37;2.30;;;21.50;58.80;;;;;;5034006;28;20433;-68
2023/11/09 04:52:10;;;;;;;2.40;1.93;;;21.50;58.80;;;;;;5033755;28;20769;-68
2023/11/09 04:54:45;;;;;;;2.57;2.10;;;21.50;58.80;;;;;;5033700;28;20835;-66
2023/11/09 05:07:52;;;;;;;2.53;2.00;;;21.50;58.80;;;;;;5033875;28;20390;-68
2023/11/09 05:10:17;;;;;;;3.50;2.10;;;21.50;58.90;;;;;;5033639;28;20917;-67
2023/11/09 05:12:43;;;;;;;3.00;2.40;;;21.50;58.90;;;;;;5033700;28;20187;-67
2023/11/09 05:15:10;;;;;;;2.50;1.93;;;21.40;58.80;;;;;;5033505;28;20234;-67
2023/11/09 05:17:36;;;;;;;2.57;2.30;;;21.40;58.80;;;;;;5033380;28;20199;-66
2023/11/09 05:20:05;;;;;;;2.90;2.33;;;21.50;58.90;;;;;;5033749;28;20457;-67
2023/11/09 05:22:30;;;;;;;1.97;1.77;;;21.40;58.80;;;;;;5033998;28;20414;-67
2023/11/09 05:24:56;;;;;;;2.80;2.10;;;21.40;58.80;;;;;;5032475;28;20533;-67
2023/11/09 05:27:22;;;;;;;3.00;2.47;;;21.40;58.80;;;;;;5033322;28;20164;-68
2023/11/09 05:29:48;;;;;;;3.83;2.43;;;21.40;58.80;;;;;;5033233;28;20179;-66
2023/11/09 05:32:14;;;;;;;2.00;1.77;;;21.40;59.30;;;;;;5033266;28;20406;-66
2023/11/09 05:34:40;;;;;;;2.57;1.97;;;21.50;58.90;;;;;;5047559;28;20183;-66
2023/11/09 05:37:05;;;;;;;2.80;2.50;;;21.50;58.90;;;;;;5052296;28;20549;-67
2023/11/09 05:39:32;;;;;;;3.23;2.40;;;21.40;58.80;;;;;;5053122;28;20503;-68
2023/11/09 05:41:59;;;;;;;3.70;2.73;;;21.40;58.30;;;;;;5052961;28;20179;-66
2023/11/09 05:44:25;;;;;;;2.40;2.07;;;21.40;57.70;;;;;;5054257;28;20414;-67
2023/11/09 05:46:51;;;;;;;2.50;2.30;;;21.40;57.80;;;;;;5052797;28;20432;-67
2023/11/09 05:49:17;;;;;;;3.03;2.20;;;21.40;57.90;;;;;;5052993;28;20418;-67
2023/11/09 05:51:46;;;;;;;4.10;2.50;;;21.40;57.90;;;;;;5052327;28;20488;-68
2023/11/09 05:54:12;;;;;;;2.77;2.17;;;21.40;58.00;;;;;;5052680;28;20193;-64
2023/11/09 05:56:38;;;;;;;2.60;1.87;;;21.40;58.10;;;;;;5051099;28;20449;-66
2023/11/09 05:59:03;;;;;;;2.90;2.50;;;21.40;58.10;;;;;;5052662;28;20233;-68
2023/11/09 06:01:30;;;;;;;3.07;2.43;;;21.40;58.10;;;;;;5052782;28;20171;-67
2023/11/09 06:04:05;;;;;;;3.70;2.40;;;21.40;58.10;;;;;;5052656;28;20176;-67
2023/11/09 06:06:31;;;;;;;3.63;2.50;;;21.40;58.10;;;;;;5052614;28;20936;-68
2023/11/09 06:08:57;;;;;;;2.87;2.03;;;21.40;58.20;;;;;;5052853;28;20476;-66
2023/11/09 06:11:24;;;;;;;3.80;2.50;;;21.40;58.20;;;;;;5052550;28;20450;-68
2023/11/09 06:13:51;;;;;;;2.53;1.70;;;21.40;58.20;;;;;;5052529;28;20436;-66
2023/11/09 06:16:18;;;;;;;4.07;2.50;;;21.40;58.30;;;;;;5051530;28;20464;-66
2023/11/09 06:18:43;;;;;;;3.40;1.80;;;21.40;58.30;;;;;;5052286;28;20429;-67
2023/11/09 06:21:09;;;;;;;3.03;2.37;;;21.40;58.30;;;;;;5051160;28;20470;-65
2023/11/09 06:23:35;;;;;;;2.17;1.87;;;21.40;58.30;;;;;;5053127;28;20164;-65
2023/11/09 06:26:00;;;;;;;2.90;2.00;;;21.40;58.40;;;;;;5052447;28;20205;-67
2023/11/09 06:28:26;;;;;;;3.13;2.20;;;21.40;58.40;;;;;;5052510;28;20171;-67
2023/11/09 06:30:52;;;;;;;2.83;2.10;;;21.40;58.40;;;;;;5052758;28;20183;-66
2023/11/09 06:33:20;;;;;;;3.13;2.30;;;21.40;58.50;;;;;;5052463;28;20974;-67
2023/11/09 06:35:48;;;;;;;3.63;2.27;;;21.50;58.50;;;;;;5052874;28;20236;-68
2023/11/09 06:38:14;;;;;;;3.40;2.13;;;21.50;58.50;;;;;;5056201;28;20417;-66
2023/11/09 06:40:40;;;;;;;2.87;2.37;;;21.50;58.50;;;;;;5056875;28;20544;-67
2023/11/09 06:43:06;;;;;;;3.07;2.40;;;21.50;58.50;;;;;;5056700;28;20944;-64
2023/11/09 06:45:32;;;;;;;2.90;1.77;;;21.50;58.50;;;;;;5056309;28;20472;-65
2023/11/09 06:47:58;;;;;;;7.13;2.10;;;21.50;58.50;;;;;;5059102;28;20198;-64
2023/11/09 06:50:24;;;;;;;2.80;2.40;;;21.50;58.50;;;;;;5058948;28;20171;-65
2023/11/09 06:52:55;;;;;;;2.57;2.10;;;21.50;58.50;;;;;;5059711;28;20401;-66
2023/11/09 06:55:21;;;;;;;2.70;2.00;;;21.50;58.50;;;;;;5059037;28;20190;-65
2023/11/09 06:57:47;;;;;;;2.70;2.20;;;21.50;58.50;;;;;;5059663;28;20501;-66
2023/11/09 07:00:13;;;;;;;3.27;2.10;;;21.50;58.50;;;;;;5059267;28;21050;-65
2023/11/09 07:02:43;;;;;;;2.50;1.90;;;21.50;58.50;;;;;;5058797;28;20439;-65
2023/11/09 07:05:10;;;;;;;3.60;2.23;;;21.50;58.50;;;;;;5057719;28;20413;-65
2023/11/09 07:07:38;;;;;;;2.90;2.30;;;21.50;58.60;;;;;;5057737;28;20480;-66
2023/11/09 07:10:07;;;;;;;2.70;1.83;;;21.60;58.70;;;;;;5057903;28;20424;-66
2023/11/09 07:12:33;;;;;;;3.97;2.30;;;21.50;58.60;;;;;;5058346;28;20409;-66
2023/11/09 07:14:59;;;;;;;2.80;2.00;;;21.50;58.60;;;;;;5057783;28;20475;-66
2023/11/09 07:17:24;;;;;;;2.97;2.23;;;21.50;58.60;;;;;;5057786;28;20433;-65
2023/11/09 07:19:50;;;;;;;2.97;2.10;;;21.50;58.60;;;;;;5057384;28;20190;-66
2023/11/09 07:22:16;;;;;;;2.97;2.07;;;21.50;58.60;;;;;;5057626;28;20167;-64
2023/11/09 07:24:44;;;;;;;2.70;1.70;;;21.50;58.50;;;;;;5057138;28;20820;-66
2023/11/09 07:27:10;;;;;;;3.53;2.20;;;21.50;58.50;;;;;;5057223;28;20494;-66
2023/11/09 07:29:36;;;;;;;3.80;2.20;;;21.60;58.60;;;;;;5057863;28;20878;-66
2023/11/09 07:32:02;;;;;;;2.53;2.07;;;21.50;58.50;;;;;;5057877;28;20437;-66
2023/11/09 07:34:30;;;;;;;2.10;1.80;;;21.60;58.60;;;;;;5057416;28;20421;-65
2023/11/09 07:36:56;;;;;;;3.60;1.80;;;21.60;58.60;;;;;;5057225;28;20202;-66
2023/11/09 07:39:24;;;;;;;4.60;2.80;;;21.50;58.50;;;;;;5057511;28;20448;-63
2023/11/09 07:41:50;;;;;;;4.50;2.10;;;21.50;58.50;;;;;;5056804;28;20402;-66
2023/11/09 07:44:16;;;;;;;5.57;2.13;;;21.50;58.60;;;;;;5055820;28;20412;-65
2023/11/09 07:46:42;;;;;;;3.17;2.10;;;21.50;58.60;;;;;;5056401;28;20421;-65
2023/11/09 07:49:10;;;;;;;3.13;1.73;;;21.60;58.70;;;;;;5056116;28;20433;-66
2023/11/09 07:51:37;;;;;;;2.73;2.07;;;21.60;58.70;;;;;;5058647;28;20194;-66
2023/11/09 07:54:07;;;;;;;3.53;2.10;;;21.60;58.70;;;;;;5058281;28;20413;-63
2023/11/09 07:56:33;;;;;;;2.97;1.60;;;21.60;58.80;;;;;;5058987;28;20438;-65
2023/11/09 07:58:59;;;;;;;4.13;2.10;;;21.60;58.80;;;;;;5057688;28;20967;-65
2023/11/09 08:01:24;;;;;;;2.70;2.03;;;21.60;58.70;;;;;;5058652;28;20240;-66
2023/11/09 08:03:51;;;;;;;3.27;2.40;;;21.60;58.70;;;;;;5057906;28;20865;-66
2023/11/09 08:06:17;;;;;;;3.47;2.13;;;21.60;58.70;;;;;;5058704;28;20198;-65
2023/11/09 08:08:44;;;;;;;3.30;2.10;;;21.60;58.70;;;;;;5058251;28;20859;-65
2023/11/09 08:11:10;;;;;;;5.43;2.20;;;21.60;58.70;;;;;;5058542;28;20536;-66
2023/11/09 08:13:37;;;;;;;2.60;1.93;;;21.60;58.70;;;;;;5058411;28;20475;-66
2023/11/09 08:16:03;;;;;;;2.13;1.57;;;21.60;58.70;;;;;;5056623;28;20464;-65
2023/11/09 08:18:29;;;;;;;2.90;2.30;;;21.60;58.70;;;;;;5058494;28;20868;-66
2023/11/09 08:20:55;;;;;;;2.53;2.10;;;21.60;58.70;;;;;;5057919;28;20445;-65
2023/11/09 08:23:20;;;;;;;4.63;2.30;;;21.60;58.70;;;;;;5057614;28;20629;-65
2023/11/09 08:25:46;;;;;;;2.50;2.23;;;21.60;58.70;;;;;;5057839;28;20183;-66
2023/11/09 08:28:12;;;;;;;3.97;2.10;;;21.60;58.70;;;;;;5057806;28;20246;-65
2023/11/09 08:30:38;;;;;;;3.50;2.23;;;21.60;58.70;;;;;;5058088;28;20174;-66
2023/11/09 08:33:08;;;;;;;2.63;2.00;;;21.60;58.70;;;;;;5057523;28;20587;-66
2023/11/09 08:35:34;;;;;;;2.50;1.57;;;21.60;58.70;;;;;;5058147;28;20429;-65
2023/11/09 08:38:01;;;;;;;2.90;1.80;;;21.50;58.60;;;;;;5057366;28;20413;-65
2023/11/09 08:40:30;;;;;;;2.80;1.70;;;21.50;58.70;;;;;;5057493;28;20463;-65
2023/11/09 08:42:57;;;;;;;2.27;1.60;;;21.50;58.70;;;;;;5057611;28;20401;-66
2023/11/09 08:45:24;;;;;;;2.17;1.73;;;21.60;58.70;;;;;;5056806;28;20801;-66
2023/11/09 08:47:52;;;;;;;4.47;2.30;;;21.60;58.80;;;;;;5055372;28;20465;-66
2023/11/09 08:50:20;;;;;;;2.10;1.70;;;21.50;58.70;;;;;;5057259;28;20414;-66
2023/11/09 08:52:46;;;;;;;3.50;1.70;;;21.60;58.80;;;;;;5056234;28;20413;-65
2023/11/09 08:55:13;;;;;;;2.77;1.80;;;21.50;58.70;;;;;;5056407;28;20421;-66
2023/11/09 08:57:39;;;;;;;2.70;1.80;;;21.60;58.80;;;;;;5056531;28;20424;-64
2023/11/09 09:00:11;;;;;;;4.13;2.00;;;21.60;58.80;;;;;;5056270;28;20191;-66
2023/11/09 09:02:39;;;;;;;1.50;1.40;;;21.60;58.80;;;;;;5056309;28;20443;-66
2023/11/09 09:05:05;;;;;;;1.93;1.73;;;21.60;58.90;;;;;;5053060;28;20493;-68
2023/11/09 09:07:31;;;;;;;2.73;1.40;;;21.60;59.40;;;;;;5053639;28;20912;-66
2023/11/09 09:09:56;;;;;;;6.97;1.60;;;21.60;59.40;;;;;;5053366;28;20301;-66
2023/11/09 09:12:22;;;;;;;5.13;1.97;;;21.60;58.80;;;;;;5053358;28;20493;-68
2023/11/09 09:14:51;;;;;;;4.67;2.03;;;21.60;58.80;;;;;;5053836;28;20179;-65
2023/11/09 09:17:16;;;;;;;2.33;1.70;;;21.60;58.80;;;;;;5052351;28;20222;-68
2023/11/09 09:19:42;;;;;;;1.77;1.50;;;21.60;58.90;;;;;;5052750;28;20939;-65
2023/11/09 09:22:09;;;;;;;2.43;1.77;;;21.60;58.80;;;;;;5051339;28;20178;-68
2023/11/09 09:24:39;;;;;;;3.57;2.53;;;21.60;58.80;;;;;;5051303;28;20254;-68
2023/11/09 09:27:06;;;;;;;2.80;1.80;;;21.60;58.90;;;;;;5051117;28;20928;-68
2023/11/09 09:29:35;;;;;;;2.00;1.63;;;21.60;58.90;;;;;;5051223;28;20440;-67
2023/11/09 09:32:04;;;;;;;2.93;1.90;;;21.60;58.80;;;;;;5051190;28;20447;-67
2023/11/09 09:34:30;;;;;;;2.10;1.90;;;21.60;58.80;;;;;;5051029;28;20409;-69
2023/11/09 09:36:58;;;;;;;2.23;1.70;;;21.60;58.80;;;;;;5050973;28;20454;-67
2023/11/09 09:39:24;;;;;;;2.10;1.87;;;21.60;58.80;;;;;;5050898;28;20820;-68
2023/11/09 09:41:51;;;;;;;3.93;1.70;;;21.70;59.40;;;;;;5050941;28;20996;-65
2023/11/09 09:44:17;;;;;;;2.03;1.47;;;21.60;58.80;;;;;;5051005;28;20927;-68
2023/11/09 09:46:44;;;;;;;2.57;1.43;;;21.70;58.90;;;;;;5050785;28;20504;-66
2023/11/09 09:49:10;;;;;;;2.50;1.47;;;21.70;58.90;;;;;;5050821;28;20414;-68
2023/11/09 09:51:37;;;;;;;2.53;1.90;;;21.70;58.90;;;;;;5050913;28;20725;-68
2023/11/09 09:54:08;;;;;;;2.30;1.90;;;21.70;58.90;;;;;;5051209;28;20764;-66
2023/11/09 09:56:38;;;;;;;5.43;1.97;;;21.70;58.90;;;;;;5050701;28;20433;-66
2023/11/09 09:59:06;;;;;;;2.40;1.80;;;21.70;58.90;;;;;;5051138;28;20461;-68
2023/11/09 10:01:34;;;;;;;1.90;1.43;;;21.70;58.90;;;;;;5050568;28;20460;-69
2023/11/09 10:04:01;;;;;;;2.33;1.63;;;21.70;58.90;;;;;;5050684;28;20401;-68
2023/11/09 10:06:27;;;;;;;2.67;1.83;;;21.70;58.90;;;;;;5050629;28;20426;-67
2023/11/09 10:08:52;;;;;;;2.30;1.50;;;21.70;58.90;;;;;;5050561;28;20413;-67
2023/11/09 10:11:18;;;;;;;2.30;1.60;;;21.70;58.80;;;;;;5050040;28;20162;-66
2023/11/09 10:13:46;;;;;;;1.77;1.50;;;21.70;58.90;;;;;;5050433;28;20574;-69
2023/11/09 10:16:16;;;;;;;2.50;1.43;;;21.70;58.80;;;;;;5050465;28;20440;-67
2023/11/09 10:18:41;;;;;;;2.10;1.80;;;21.70;58.90;;;;;;5050467;28;20430;-65
2023/11/09 10:21:12;;;;;;;1.70;1.30;;;21.70;58.80;;;;;;5050523;28;20409;-66
2023/11/09 10:23:39;;;;;;;2.50;2.10;;;21.70;58.80;;;;;;5050563;28;20151;-66
2023/11/09 10:26:13;;;;;;;1.80;1.30;;;21.70;58.80;;;;;;5050310;28;20421;-68
2023/11/09 10:28:39;;;;;;;2.60;1.57;;;21.70;58.90;;;;;;5050487;28;20397;-65
2023/11/09 10:31:05;;;;;;;2.10;1.50;;;21.70;58.80;;;;;;5050374;28;20397;-67
2023/11/09 10:33:33;;;;;;;2.07;1.60;;;21.70;58.80;;;;;;5050394;28;20179;-66
2023/11/09 10:36:01;;;;;;;2.73;1.60;;;21.70;58.80;;;;;;5050253;28;20187;-68
2023/11/09 10:38:32;;;;;;;2.63;1.57;;;21.70;58.80;;;;;;5050302;28;20421;-66
2023/11/09 10:41:00;;;;;;;2.03;1.70;;;21.70;58.80;;;;;;5050196;28;20445;-67
2023/11/09 10:43:26;;;;;;;2.20;1.70;;;21.70;58.80;;;;;;5050211;28;20412;-67
2023/11/09 10:45:52;;;;;;;2.10;1.90;;;21.70;58.80;;;;;;5048758;28;20828;-66
2023/11/09 10:48:18;;;;;;;1.77;1.40;;;21.70;58.80;;;;;;5050234;28;20174;-67
2023/11/09 10:50:47;;;;;;;3.90;2.20;;;21.70;58.80;;;;;;5050128;28;20445;-67
2023/11/09 10:53:18;;;;;;;2.70;1.80;;;21.70;58.80;;;;;;5050418;28;20890;-65
2023/11/09 10:55:59;;;;;;;1.63;1.50;;;21.70;58.80;;;;;;5050109;28;20539;-68
2023/11/09 10:58:25;;;;;;;1.90;1.57;;;21.70;58.80;;;;;;5050447;28;20466;-66
2023/11/09 11:00:58;;;;;;;1.33;1.23;;;21.70;58.80;;;;;;5050416;28;21051;-67
2023/11/09 11:03:25;;;;;;;2.17;1.60;;;21.70;58.80;;;;;;5050102;28;20390;-68
2023/11/09 11:05:57;;;;;;;2.20;1.40;;;21.70;58.80;;;;;;5050239;28;20429;-68
2023/11/09 11:08:26;;;;;;;2.47;1.83;;;21.70;58.80;;;;;;5050069;28;20386;-67
2023/11/09 11:10:53;;;;;;;2.37;1.90;;;21.70;58.80;;;;;;5050303;28;20410;-65
2023/11/09 11:13:20;;;;;;;2.40;1.40;;;21.70;58.80;;;;;;5050237;28;20827;-67
2023/11/09 11:16:05;;;;;;;3.70;2.07;;;21.70;58.80;;;;;;5050157;28;20429;-66
2023/11/09 11:18:44;;;;;;;2.50;1.53;;;21.70;58.80;;;;;;5050185;28;20425;-65
2023/11/09 11:21:27;;;;;;;2.43;2.07;;;21.70;58.80;;;;;;5050228;28;20410;-66
2023/11/09 11:24:40;;;;;;;2.40;1.60;;;21.70;58.80;;;;;;5052753;28;20451;-68
2023/11/09 11:27:11;;;;;;;4.97;1.73;;;21.70;58.80;;;;;;5052522;28;20512;-70
2023/11/09 11:29:40;;;;;;;3.30;1.83;;;21.70;58.80;;;;;;5053063;28;21017;-66
2023/11/09 11:32:09;;;;;;;2.60;1.40;;;21.70;58.80;;;;;;5053864;28;20412;-66
2023/11/09 11:34:55;;;;;;;1.47;1.27;;;21.70;58.80;;;;;;5053916;28;20459;-68
2023/11/09 11:37:28;;;;;;;2.33;1.73;;;21.70;58.80;;;;;;5053613;28;20413;-67
2023/11/09 11:39:54;;;;;;;2.37;1.60;;;21.70;58.80;;;;;;5052256;28;20453;-67
2023/11/09 11:42:25;;;;;;;3.93;1.80;;;21.70;59.00;;;;;;5053786;28;20413;-68
2023/11/09 11:44:56;;;;;;;2.33;1.87;;;21.70;58.80;;;;;;5053654;28;20175;-66
2023/11/09 11:47:22;;;;;;;5.10;3.00;;;21.70;58.80;;;;;;5053847;28;20475;-66
2023/11/09 11:49:49;;;;;;;4.33;3.20;;;21.70;59.30;;;;;;5053843;28;20413;-65
2023/11/09 11:52:18;;;;;;;3.57;3.23;;;21.70;58.70;;;;;;5053510;28;20444;-63
2023/11/09 11:54:45;;;;;;;6.03;4.30;;;21.70;58.70;;;;;;5053226;28;20413;-66
2023/11/09 11:57:14;;;;;;;4.57;3.97;;;21.70;58.70;;;;;;5053801;28;20445;-67
2023/11/09 11:59:41;;;;;;;3.87;3.47;;;21.70;58.70;;;;;;5053552;28;20547;-66
2023/11/09 12:02:12;;;;;;;4.70;3.13;;;21.70;58.70;;;;;;5053681;28;20852;-64
2023/11/09 12:04:46;;;;;;;5.63;3.87;;;21.70;58.70;;;;;;5053870;28;20389;-68
2023/11/09 12:07:19;;;;;;;4.30;3.40;;;21.70;58.70;;;;;;5053765;28;20760;-65
2023/11/09 12:09:48;;;;;;;4.50;3.70;;;21.70;58.80;;;;;;5053384;28;20397;-67
2023/11/09 12:12:14;;;;;;;6.83;3.73;;;21.70;58.80;;;;;;5053566;28;20420;-67
2023/11/09 12:14:49;;;;;;;5.50;3.60;;;21.70;58.80;;;;;;5052370;28;20429;-67
2023/11/09 12:17:14;;;;;;;4.97;4.17;;;21.70;58.80;;;;;;5053624;28;20475;-65
2023/11/09 12:19:43;;;;;;;6.00;4.00;;;21.70;58.90;;;;;;5053468;28;20461;-65
2023/11/09 12:22:10;;;;;;;5.10;3.23;;;21.70;58.80;;;;;;5053779;28;20171;-67
2023/11/09 12:24:36;;;;;;;8.10;4.07;;;21.70;58.80;;;;;;5053280;28;21050;-66
2023/11/09 12:27:07;;;;;;;7.20;3.87;;;21.70;58.80;;;;;;5053258;28;20511;-67
2023/11/09 12:29:35;;;;;;;5.10;3.70;;;21.70;58.80;;;;;;5053511;28;20203;-67
2023/11/09 12:32:01;;;;;;;6.40;4.00;;;21.70;58.80;;;;;;5053265;28;20929;-66
2023/11/09 12:34:28;;;;;;;8.00;3.97;;;21.70;58.80;;;;;;5052744;28;20417;-67
2023/11/09 12:36:57;;;;;;;3.57;3.00;;;21.70;58.80;;;;;;5053397;28;20194;-66
2023/11/09 12:39:28;;;;;;;4.10;3.57;;;21.70;58.80;;;;;;5053309;28;20453;-67
2023/11/09 12:41:59;;;;;;;5.73;3.40;;;21.70;58.70;;;;;;5053499;28;20382;-67
2023/11/09 12:44:31;;;;;;;5.23;2.87;;;21.70;58.80;;;;;;5052251;28;20936;-66
2023/11/09 12:47:13;;;;;;;5.30;3.53;;;21.70;58.70;;;;;;5053207;28;20421;-64
2023/11/09 12:49:40;;;;;;;4.70;4.20;;;21.70;58.70;;;;;;5053303;28;20409;-67
2023/11/09 12:52:07;;;;;;;5.03;2.90;;;21.70;58.70;;;;;;5052207;28;20409;-65
2023/11/09 12:54:34;;;;;;;6.17;3.60;;;21.70;58.70;;;;;;5052338;28;20408;-67
2023/11/09 12:57:04;;;;;;;5.27;3.77;;;21.70;58.70;;;;;;5051957;28;20428;-66
2023/11/09 12:59:31;;;;;;;5.83;3.20;;;21.70;58.70;;;;;;5051960;28;20452;-67